sensor_id;sensor_type;location;lat;lon;timestamp;P1;durP1;ratioP1;P2;durP2;ratioP2
17763;SDS011;22245;52.832;13.816;2023-05-09T00:02:25;8.63;;;4.80;;
17763;SDS011;22245;52.832;13.816;2023-05-09T00:05:47;6.32;;;4.60;;
17763;SDS011;22245;52.832;13.816;2023-05-09T00:09:10;6.93;;;4.65;;
17763;SDS011;22245;52.832;13.816;2023-05-09T00:12:32;6.93;;;4.80;;
17763;SDS011;22245;52.832;13.816;2023-05-09T00:15:54;7.75;;;5.03;;
17763;SDS011;22245;52.832;13.816;2023-05-09T00:19:17;7.30;;;5.03;;
17763;SDS011;22245;52.832;13.816;2023-05-09T00:22:39;9.05;;;5.38;;
17763;SDS011;22245;52.832;13.816;2023-05-09T00:26:02;10.20;;;4.75;;
17763;SDS011;22245;52.832;13.816;2023-05-09T00:29:23;6.57;;;4.80;;
17763;SDS011;22245;52.832;13.816;2023-05-09T00:32:45;7.13;;;4.95;;
17763;SDS011;22245;52.832;13.816;2023-05-09T00:36:07;7.60;;;4.70;;
17763;SDS011;22245;52.832;13.816;2023-05-09T00:39:28;8.00;;;4.55;;
17763;SDS011;22245;52.832;13.816;2023-05-09T00:42:52;7.65;;;4.40;;
17763;SDS011;22245;52.832;13.816;2023-05-09T00:46:15;7.38;;;4.03;;
17763;SDS011;22245;52.832;13.816;2023-05-09T00:49:36;5.93;;;3.97;;
17763;SDS011;22245;52.832;13.816;2023-05-09T00:52:58;10.73;;;4.65;;
17763;SDS011;22245;52.832;13.816;2023-05-09T00:56:20;6.72;;;4.13;;
17763;SDS011;22245;52.832;13.816;2023-05-09T00:59:43;8.02;;;4.50;;
17763;SDS011;22245;52.832;13.816;2023-05-09T01:03:05;5.63;;;4.25;;
17763;SDS011;22245;52.832;13.816;2023-05-09T01:06:29;7.28;;;4.43;;
17763;SDS011;22245;52.832;13.816;2023-05-09T01:09:59;7.85;;;5.00;;
17763;SDS011;22245;52.832;13.816;2023-05-09T01:13:26;6.47;;;4.50;;
17763;SDS011;22245;52.832;13.816;2023-05-09T01:16:54;8.70;;;4.10;;
17763;SDS011;22245;52.832;13.816;2023-05-09T01:20:22;7.43;;;4.43;;
17763;SDS011;22245;52.832;13.816;2023-05-09T01:23:59;5.95;;;3.80;;
17763;SDS011;22245;52.832;13.816;2023-05-09T01:27:38;6.72;;;4.47;;
17763;SDS011;22245;52.832;13.816;2023-05-09T01:31:09;10.60;;;4.90;;
17763;SDS011;22245;52.832;13.816;2023-05-09T01:34:31;5.78;;;4.13;;
17763;SDS011;22245;52.832;13.816;2023-05-09T01:37:54;8.07;;;4.47;;
17763;SDS011;22245;52.832;13.816;2023-05-09T01:41:17;9.00;;;4.38;;
17763;SDS011;22245;52.832;13.816;2023-05-09T01:44:42;6.82;;;4.20;;
17763;SDS011;22245;52.832;13.816;2023-05-09T01:48:08;6.10;;;4.10;;
17763;SDS011;22245;52.832;13.816;2023-05-09T01:51:31;7.68;;;4.35;;
17763;SDS011;22245;52.832;13.816;2023-05-09T01:54:54;5.50;;;3.67;;
17763;SDS011;22245;52.832;13.816;2023-05-09T01:58:17;6.47;;;4.10;;
17763;SDS011;22245;52.832;13.816;2023-05-09T02:01:40;9.25;;;4.40;;
17763;SDS011;22245;52.832;13.816;2023-05-09T02:05:04;7.95;;;4.70;;
17763;SDS011;22245;52.832;13.816;2023-05-09T02:08:29;9.45;;;4.93;;
17763;SDS011;22245;52.832;13.816;2023-05-09T02:11:52;8.48;;;4.95;;
17763;SDS011;22245;52.832;13.816;2023-05-09T02:15:14;8.15;;;5.55;;
17763;SDS011;22245;52.832;13.816;2023-05-09T02:18:35;10.13;;;5.47;;
17763;SDS011;22245;52.832;13.816;2023-05-09T02:21:59;8.57;;;5.30;;
17763;SDS011;22245;52.832;13.816;2023-05-09T02:25:21;9.05;;;5.13;;
17763;SDS011;22245;52.832;13.816;2023-05-09T02:28:43;7.37;;;5.33;;
17763;SDS011;22245;52.832;13.816;2023-05-09T02:32:07;8.00;;;5.97;;
17763;SDS011;22245;52.832;13.816;2023-05-09T02:35:31;8.80;;;5.50;;
17763;SDS011;22245;52.832;13.816;2023-05-09T02:38:54;8.97;;;5.80;;
17763;SDS011;22245;52.832;13.816;2023-05-09T02:42:17;8.40;;;5.80;;
17763;SDS011;22245;52.832;13.816;2023-05-09T02:45:41;9.47;;;6.20;;
17763;SDS011;22245;52.832;13.816;2023-05-09T02:49:03;7.87;;;5.70;;
17763;SDS011;22245;52.832;13.816;2023-05-09T02:52:25;9.40;;;6.23;;
17763;SDS011;22245;52.832;13.816;2023-05-09T02:55:48;9.97;;;5.63;;
17763;SDS011;22245;52.832;13.816;2023-05-09T02:59:09;7.20;;;5.50;;
17763;SDS011;22245;52.832;13.816;2023-05-09T03:02:31;6.93;;;5.60;;
17763;SDS011;22245;52.832;13.816;2023-05-09T03:05:53;8.93;;;5.47;;
17763;SDS011;22245;52.832;13.816;2023-05-09T03:09:15;9.90;;;5.97;;
17763;SDS011;22245;52.832;13.816;2023-05-09T03:12:38;10.63;;;5.93;;
17763;SDS011;22245;52.832;13.816;2023-05-09T03:16:04;12.10;;;6.37;;
17763;SDS011;22245;52.832;13.816;2023-05-09T03:19:26;9.53;;;5.57;;
17763;SDS011;22245;52.832;13.816;2023-05-09T03:22:47;9.60;;;6.37;;
17763;SDS011;22245;52.832;13.816;2023-05-09T03:26:10;11.07;;;6.37;;
17763;SDS011;22245;52.832;13.816;2023-05-09T03:29:33;11.80;;;6.47;;
17763;SDS011;22245;52.832;13.816;2023-05-09T03:32:55;11.10;;;6.63;;
17763;SDS011;22245;52.832;13.816;2023-05-09T03:36:17;10.27;;;6.63;;
17763;SDS011;22245;52.832;13.816;2023-05-09T03:39:39;9.20;;;6.03;;
17763;SDS011;22245;52.832;13.816;2023-05-09T03:43:00;10.90;;;6.30;;
17763;SDS011;22245;52.832;13.816;2023-05-09T03:46:24;9.33;;;6.07;;
17763;SDS011;22245;52.832;13.816;2023-05-09T03:49:46;16.90;;;6.93;;
17763;SDS011;22245;52.832;13.816;2023-05-09T03:53:10;11.43;;;6.60;;
17763;SDS011;22245;52.832;13.816;2023-05-09T03:56:33;12.63;;;6.40;;
17763;SDS011;22245;52.832;13.816;2023-05-09T03:59:55;9.87;;;5.77;;
17763;SDS011;22245;52.832;13.816;2023-05-09T04:03:19;13.60;;;7.00;;
17763;SDS011;22245;52.832;13.816;2023-05-09T04:06:43;12.67;;;6.53;;
17763;SDS011;22245;52.832;13.816;2023-05-09T04:10:05;10.10;;;5.97;;
17763;SDS011;22245;52.832;13.816;2023-05-09T04:13:28;10.70;;;6.30;;
17763;SDS011;22245;52.832;13.816;2023-05-09T04:16:53;10.50;;;5.77;;
17763;SDS011;22245;52.832;13.816;2023-05-09T04:20:16;9.23;;;5.77;;
17763;SDS011;22245;52.832;13.816;2023-05-09T04:23:38;9.13;;;5.93;;
17763;SDS011;22245;52.832;13.816;2023-05-09T04:27:03;9.40;;;6.03;;
17763;SDS011;22245;52.832;13.816;2023-05-09T04:30:26;11.13;;;5.93;;
17763;SDS011;22245;52.832;13.816;2023-05-09T04:33:50;9.43;;;6.13;;
17763;SDS011;22245;52.832;13.816;2023-05-09T04:37:15;8.77;;;5.40;;
17763;SDS011;22245;52.832;13.816;2023-05-09T04:40:38;9.10;;;5.53;;
17763;SDS011;22245;52.832;13.816;2023-05-09T04:44:00;9.00;;;4.40;;
17763;SDS011;22245;52.832;13.816;2023-05-09T04:47:22;11.53;;;5.10;;
17763;SDS011;22245;52.832;13.816;2023-05-09T04:50:44;7.63;;;4.30;;
17763;SDS011;22245;52.832;13.816;2023-05-09T04:54:09;8.53;;;4.30;;
17763;SDS011;22245;52.832;13.816;2023-05-09T04:57:32;8.00;;;4.30;;
17763;SDS011;22245;52.832;13.816;2023-05-09T05:00:56;10.70;;;4.40;;
17763;SDS011;22245;52.832;13.816;2023-05-09T05:04:17;6.10;;;3.90;;
17763;SDS011;22245;52.832;13.816;2023-05-09T05:07:40;7.47;;;3.93;;
17763;SDS011;22245;52.832;13.816;2023-05-09T05:11:06;4.90;;;3.33;;
17763;SDS011;22245;52.832;13.816;2023-05-09T05:14:28;8.13;;;3.90;;
17763;SDS011;22245;52.832;13.816;2023-05-09T05:17:50;6.23;;;3.53;;
17763;SDS011;22245;52.832;13.816;2023-05-09T05:21:15;7.30;;;4.23;;
17763;SDS011;22245;52.832;13.816;2023-05-09T05:24:37;6.70;;;3.80;;
17763;SDS011;22245;52.832;13.816;2023-05-09T05:28:00;6.25;;;4.43;;
17763;SDS011;22245;52.832;13.816;2023-05-09T05:31:22;6.13;;;3.80;;
17763;SDS011;22245;52.832;13.816;2023-05-09T05:34:44;5.03;;;3.43;;
17763;SDS011;22245;52.832;13.816;2023-05-09T05:38:05;5.97;;;3.70;;
17763;SDS011;22245;52.832;13.816;2023-05-09T05:41:27;9.57;;;4.10;;
17763;SDS011;22245;52.832;13.816;2023-05-09T05:44:50;6.07;;;3.90;;
17763;SDS011;22245;52.832;13.816;2023-05-09T05:48:12;9.20;;;4.00;;
17763;SDS011;22245;52.832;13.816;2023-05-09T05:51:34;5.90;;;3.83;;
17763;SDS011;22245;52.832;13.816;2023-05-09T05:54:57;6.35;;;3.50;;
17763;SDS011;22245;52.832;13.816;2023-05-09T05:58:19;5.25;;;3.65;;
17763;SDS011;22245;52.832;13.816;2023-05-09T06:01:42;7.82;;;3.72;;
17763;SDS011;22245;52.832;13.816;2023-05-09T06:05:05;7.88;;;3.90;;
17763;SDS011;22245;52.832;13.816;2023-05-09T06:08:27;8.77;;;3.85;;
17763;SDS011;22245;52.832;13.816;2023-05-09T06:11:50;5.78;;;3.70;;
17763;SDS011;22245;52.832;13.816;2023-05-09T06:15:12;8.55;;;4.28;;
17763;SDS011;22245;52.832;13.816;2023-05-09T06:18:38;8.65;;;3.60;;
17763;SDS011;22245;52.832;13.816;2023-05-09T06:22:00;5.15;;;3.38;;
17763;SDS011;22245;52.832;13.816;2023-05-09T06:25:22;6.45;;;3.53;;
17763;SDS011;22245;52.832;13.816;2023-05-09T06:28:43;5.30;;;3.45;;
17763;SDS011;22245;52.832;13.816;2023-05-09T06:32:05;5.57;;;3.58;;
17763;SDS011;22245;52.832;13.816;2023-05-09T06:35:27;5.45;;;3.63;;
17763;SDS011;22245;52.832;13.816;2023-05-09T06:38:49;5.95;;;3.42;;
17763;SDS011;22245;52.832;13.816;2023-05-09T06:42:11;6.28;;;3.72;;
17763;SDS011;22245;52.832;13.816;2023-05-09T06:45:35;5.18;;;3.63;;
17763;SDS011;22245;52.832;13.816;2023-05-09T06:48:57;6.38;;;3.40;;
17763;SDS011;22245;52.832;13.816;2023-05-09T06:52:22;5.05;;;3.70;;
17763;SDS011;22245;52.832;13.816;2023-05-09T06:55:44;5.75;;;3.80;;
17763;SDS011;22245;52.832;13.816;2023-05-09T06:59:06;8.18;;;3.38;;
17763;SDS011;22245;52.832;13.816;2023-05-09T07:02:32;4.60;;;2.97;;
17763;SDS011;22245;52.832;13.816;2023-05-09T07:05:54;5.63;;;3.72;;
17763;SDS011;22245;52.832;13.816;2023-05-09T07:09:19;8.57;;;3.42;;
17763;SDS011;22245;52.832;13.816;2023-05-09T07:12:40;4.00;;;2.90;;
17763;SDS011;22245;52.832;13.816;2023-05-09T07:16:02;5.47;;;3.00;;
17763;SDS011;22245;52.832;13.816;2023-05-09T07:19:24;7.60;;;3.25;;
17763;SDS011;22245;52.832;13.816;2023-05-09T07:22:46;3.60;;;3.03;;
17763;SDS011;22245;52.832;13.816;2023-05-09T07:26:09;4.93;;;3.10;;
17763;SDS011;22245;52.832;13.816;2023-05-09T07:29:30;4.45;;;3.20;;
17763;SDS011;22245;52.832;13.816;2023-05-09T07:32:52;4.32;;;3.20;;
17763;SDS011;22245;52.832;13.816;2023-05-09T07:36:13;6.68;;;3.85;;
17763;SDS011;22245;52.832;13.816;2023-05-09T07:39:36;8.25;;;3.63;;
17763;SDS011;22245;52.832;13.816;2023-05-09T07:42:58;6.68;;;3.17;;
17763;SDS011;22245;52.832;13.816;2023-05-09T07:46:20;6.53;;;3.03;;
17763;SDS011;22245;52.832;13.816;2023-05-09T07:49:42;6.15;;;3.00;;
17763;SDS011;22245;52.832;13.816;2023-05-09T07:53:05;10.30;;;3.35;;
17763;SDS011;22245;52.832;13.816;2023-05-09T07:56:27;5.55;;;2.95;;
17763;SDS011;22245;52.832;13.816;2023-05-09T07:59:50;4.05;;;2.90;;
17763;SDS011;22245;52.832;13.816;2023-05-09T08:03:12;4.97;;;2.65;;
17763;SDS011;22245;52.832;13.816;2023-05-09T08:06:33;5.72;;;2.92;;
17763;SDS011;22245;52.832;13.816;2023-05-09T08:09:55;7.38;;;3.13;;
17763;SDS011;22245;52.832;13.816;2023-05-09T08:13:17;7.18;;;3.05;;
17763;SDS011;22245;52.832;13.816;2023-05-09T08:16:40;9.90;;;3.83;;
17763;SDS011;22245;52.832;13.816;2023-05-09T08:20:03;5.63;;;3.22;;
17763;SDS011;22245;52.832;13.816;2023-05-09T08:23:27;4.38;;;2.83;;
17763;SDS011;22245;52.832;13.816;2023-05-09T08:26:49;7.28;;;3.42;;
17763;SDS011;22245;52.832;13.816;2023-05-09T08:30:11;10.48;;;3.25;;
17763;SDS011;22245;52.832;13.816;2023-05-09T08:33:35;5.45;;;3.20;;
17763;SDS011;22245;52.832;13.816;2023-05-09T08:37:00;4.80;;;3.10;;
17763;SDS011;22245;52.832;13.816;2023-05-09T08:40:23;5.75;;;3.15;;
17763;SDS011;22245;52.832;13.816;2023-05-09T08:43:44;4.95;;;2.90;;
17763;SDS011;22245;52.832;13.816;2023-05-09T08:47:07;13.13;;;3.50;;
17763;SDS011;22245;52.832;13.816;2023-05-09T08:50:30;6.47;;;3.20;;
17763;SDS011;22245;52.832;13.816;2023-05-09T08:53:51;7.15;;;3.13;;
17763;SDS011;22245;52.832;13.816;2023-05-09T08:57:14;12.05;;;3.58;;
17763;SDS011;22245;52.832;13.816;2023-05-09T09:00:35;16.80;;;3.25;;
17763;SDS011;22245;52.832;13.816;2023-05-09T09:03:57;9.25;;;2.80;;
17763;SDS011;22245;52.832;13.816;2023-05-09T09:07:23;4.60;;;2.72;;
17763;SDS011;22245;52.832;13.816;2023-05-09T09:10:49;6.40;;;3.08;;
17763;SDS011;22245;52.832;13.816;2023-05-09T09:14:12;6.80;;;3.28;;
17763;SDS011;22245;52.832;13.816;2023-05-09T09:17:39;7.35;;;3.40;;
17763;SDS011;22245;52.832;13.816;2023-05-09T09:21:04;5.38;;;3.25;;
17763;SDS011;22245;52.832;13.816;2023-05-09T09:24:31;4.57;;;2.92;;
17763;SDS011;22245;52.832;13.816;2023-05-09T09:27:54;8.70;;;3.22;;
17763;SDS011;22245;52.832;13.816;2023-05-09T09:31:20;5.05;;;3.22;;
17763;SDS011;22245;52.832;13.816;2023-05-09T09:34:42;4.32;;;3.10;;
17763;SDS011;22245;52.832;13.816;2023-05-09T09:38:03;5.18;;;3.20;;
17763;SDS011;22245;52.832;13.816;2023-05-09T09:41:31;6.13;;;3.47;;
17763;SDS011;22245;52.832;13.816;2023-05-09T09:44:55;10.52;;;3.30;;
17763;SDS011;22245;52.832;13.816;2023-05-09T09:48:17;4.60;;;2.95;;
17763;SDS011;22245;52.832;13.816;2023-05-09T09:51:39;5.10;;;3.05;;
17763;SDS011;22245;52.832;13.816;2023-05-09T09:55:01;5.93;;;3.35;;
17763;SDS011;22245;52.832;13.816;2023-05-09T09:58:25;3.97;;;3.05;;
17763;SDS011;22245;52.832;13.816;2023-05-09T10:01:59;6.68;;;3.28;;
17763;SDS011;22245;52.832;13.816;2023-05-09T10:05:27;4.07;;;3.28;;
17763;SDS011;22245;52.832;13.816;2023-05-09T10:08:50;5.32;;;3.10;;
17763;SDS011;22245;52.832;13.816;2023-05-09T10:12:11;5.53;;;2.72;;
17763;SDS011;22245;52.832;13.816;2023-05-09T10:15:39;6.00;;;2.97;;
17763;SDS011;22245;52.832;13.816;2023-05-09T10:19:13;3.67;;;2.63;;
17763;SDS011;22245;52.832;13.816;2023-05-09T10:22:38;5.35;;;3.03;;
17763;SDS011;22245;52.832;13.816;2023-05-09T10:26:03;10.18;;;3.30;;
17763;SDS011;22245;52.832;13.816;2023-05-09T10:29:29;9.32;;;3.45;;
17763;SDS011;22245;52.832;13.816;2023-05-09T10:32:57;6.15;;;2.95;;
17763;SDS011;22245;52.832;13.816;2023-05-09T10:36:24;4.95;;;2.63;;
17763;SDS011;22245;52.832;13.816;2023-05-09T10:39:46;7.03;;;4.38;;
17763;SDS011;22245;52.832;13.816;2023-05-09T10:43:12;6.32;;;2.95;;
17763;SDS011;22245;52.832;13.816;2023-05-09T10:46:33;5.60;;;2.80;;
17763;SDS011;22245;52.832;13.816;2023-05-09T10:49:57;3.50;;;2.53;;
17763;SDS011;22245;52.832;13.816;2023-05-09T10:53:19;10.20;;;2.97;;
17763;SDS011;22245;52.832;13.816;2023-05-09T10:56:43;5.32;;;3.10;;
17763;SDS011;22245;52.832;13.816;2023-05-09T11:00:05;5.57;;;2.50;;
17763;SDS011;22245;52.832;13.816;2023-05-09T11:07:22;7.97;;;2.70;;
17763;SDS011;22245;52.832;13.816;2023-05-09T11:10:45;6.78;;;2.90;;
17763;SDS011;22245;52.832;13.816;2023-05-09T11:14:07;7.47;;;2.83;;
17763;SDS011;22245;52.832;13.816;2023-05-09T11:17:30;6.72;;;2.88;;
17763;SDS011;22245;52.832;13.816;2023-05-09T11:20:52;7.63;;;3.00;;
17763;SDS011;22245;52.832;13.816;2023-05-09T11:24:18;3.28;;;2.60;;
17763;SDS011;22245;52.832;13.816;2023-05-09T11:27:43;5.10;;;2.70;;
17763;SDS011;22245;52.832;13.816;2023-05-09T11:31:10;3.30;;;2.70;;
17763;SDS011;22245;52.832;13.816;2023-05-09T11:34:33;5.88;;;2.88;;
17763;SDS011;22245;52.832;13.816;2023-05-09T11:37:58;4.22;;;2.60;;
17763;SDS011;22245;52.832;13.816;2023-05-09T11:41:22;10.68;;;3.60;;
17763;SDS011;22245;52.832;13.816;2023-05-09T11:44:44;3.83;;;2.70;;
17763;SDS011;22245;52.832;13.816;2023-05-09T11:48:07;7.22;;;2.80;;
17763;SDS011;22245;52.832;13.816;2023-05-09T11:51:29;6.95;;;2.78;;
17763;SDS011;22245;52.832;13.816;2023-05-09T11:54:51;6.72;;;2.65;;
17763;SDS011;22245;52.832;13.816;2023-05-09T11:58:14;3.85;;;2.55;;
17763;SDS011;22245;52.832;13.816;2023-05-09T12:01:37;6.47;;;2.50;;
17763;SDS011;22245;52.832;13.816;2023-05-09T12:05:06;4.68;;;2.70;;
17763;SDS011;22245;52.832;13.816;2023-05-09T12:08:29;4.55;;;2.83;;
17763;SDS011;22245;52.832;13.816;2023-05-09T12:11:52;3.33;;;2.45;;
17763;SDS011;22245;52.832;13.816;2023-05-09T12:15:15;4.32;;;2.60;;
17763;SDS011;22245;52.832;13.816;2023-05-09T12:18:42;6.45;;;2.70;;
17763;SDS011;22245;52.832;13.816;2023-05-09T12:22:04;14.20;;;2.90;;
17763;SDS011;22245;52.832;13.816;2023-05-09T12:25:26;10.45;;;3.10;;
17763;SDS011;22245;52.832;13.816;2023-05-09T12:28:48;4.28;;;2.75;;
17763;SDS011;22245;52.832;13.816;2023-05-09T12:32:11;8.70;;;2.85;;
17763;SDS011;22245;52.832;13.816;2023-05-09T12:35:36;6.68;;;2.70;;
17763;SDS011;22245;52.832;13.816;2023-05-09T12:38:58;8.88;;;3.65;;
17763;SDS011;22245;52.832;13.816;2023-05-09T12:42:19;4.97;;;2.60;;
17763;SDS011;22245;52.832;13.816;2023-05-09T12:45:40;6.25;;;2.90;;
17763;SDS011;22245;52.832;13.816;2023-05-09T12:49:04;5.38;;;2.78;;
17763;SDS011;22245;52.832;13.816;2023-05-09T12:52:31;4.78;;;2.70;;
17763;SDS011;22245;52.832;13.816;2023-05-09T12:55:54;7.90;;;2.95;;
17763;SDS011;22245;52.832;13.816;2023-05-09T12:59:20;4.30;;;3.05;;
17763;SDS011;22245;52.832;13.816;2023-05-09T13:02:43;7.72;;;3.33;;
17763;SDS011;22245;52.832;13.816;2023-05-09T13:06:10;8.23;;;2.65;;
17763;SDS011;22245;52.832;13.816;2023-05-09T13:09:32;6.68;;;2.70;;
17763;SDS011;22245;52.832;13.816;2023-05-09T13:12:54;7.25;;;2.80;;
17763;SDS011;22245;52.832;13.816;2023-05-09T13:16:16;5.32;;;2.80;;
17763;SDS011;22245;52.832;13.816;2023-05-09T13:19:38;5.13;;;2.60;;
17763;SDS011;22245;52.832;13.816;2023-05-09T13:23:01;6.03;;;2.72;;
17763;SDS011;22245;52.832;13.816;2023-05-09T13:26:22;11.25;;;3.03;;
17763;SDS011;22245;52.832;13.816;2023-05-09T13:29:45;7.88;;;3.05;;
17763;SDS011;22245;52.832;13.816;2023-05-09T13:33:06;5.88;;;3.00;;
17763;SDS011;22245;52.832;13.816;2023-05-09T13:36:44;5.47;;;2.72;;
17763;SDS011;22245;52.832;13.816;2023-05-09T13:40:08;5.85;;;2.45;;
17763;SDS011;22245;52.832;13.816;2023-05-09T13:43:31;10.32;;;2.63;;
17763;SDS011;22245;52.832;13.816;2023-05-09T13:46:53;6.22;;;2.42;;
17763;SDS011;22245;52.832;13.816;2023-05-09T13:50:16;5.90;;;2.70;;
17763;SDS011;22245;52.832;13.816;2023-05-09T13:53:38;7.00;;;2.92;;
17763;SDS011;22245;52.832;13.816;2023-05-09T13:57:01;7.20;;;2.78;;
17763;SDS011;22245;52.832;13.816;2023-05-09T14:00:23;5.13;;;3.17;;
17763;SDS011;22245;52.832;13.816;2023-05-09T14:03:45;8.60;;;2.88;;
17763;SDS011;22245;52.832;13.816;2023-05-09T14:07:08;5.15;;;2.83;;
17763;SDS011;22245;52.832;13.816;2023-05-09T14:10:30;4.72;;;2.83;;
17763;SDS011;22245;52.832;13.816;2023-05-09T14:13:53;4.13;;;2.65;;
17763;SDS011;22245;52.832;13.816;2023-05-09T14:17:15;4.53;;;2.50;;
17763;SDS011;22245;52.832;13.816;2023-05-09T14:20:37;5.45;;;2.80;;
17763;SDS011;22245;52.832;13.816;2023-05-09T14:23:59;10.00;;;3.35;;
17763;SDS011;22245;52.832;13.816;2023-05-09T14:27:20;4.45;;;2.67;;
17763;SDS011;22245;52.832;13.816;2023-05-09T14:30:43;6.20;;;2.90;;
17763;SDS011;22245;52.832;13.816;2023-05-09T14:34:05;3.22;;;2.60;;
17763;SDS011;22245;52.832;13.816;2023-05-09T14:37:27;5.47;;;2.75;;
17763;SDS011;22245;52.832;13.816;2023-05-09T14:40:49;5.93;;;2.60;;
17763;SDS011;22245;52.832;13.816;2023-05-09T14:44:11;6.80;;;2.63;;
17763;SDS011;22245;52.832;13.816;2023-05-09T14:47:34;7.47;;;2.83;;
17763;SDS011;22245;52.832;13.816;2023-05-09T14:50:56;4.88;;;2.83;;
17763;SDS011;22245;52.832;13.816;2023-05-09T14:54:18;6.32;;;2.80;;
17763;SDS011;22245;52.832;13.816;2023-05-09T14:57:40;11.55;;;2.78;;
17763;SDS011;22245;52.832;13.816;2023-05-09T15:01:01;5.25;;;2.75;;
17763;SDS011;22245;52.832;13.816;2023-05-09T15:04:25;9.13;;;3.13;;
17763;SDS011;22245;52.832;13.816;2023-05-09T15:07:50;6.32;;;2.83;;
17763;SDS011;22245;52.832;13.816;2023-05-09T15:11:11;4.40;;;2.80;;
17763;SDS011;22245;52.832;13.816;2023-05-09T15:14:33;6.55;;;2.38;;
17763;SDS011;22245;52.832;13.816;2023-05-09T15:17:55;5.28;;;2.50;;
17763;SDS011;22245;52.832;13.816;2023-05-09T15:21:19;3.63;;;2.60;;
17763;SDS011;22245;52.832;13.816;2023-05-09T15:24:40;6.25;;;2.83;;
17763;SDS011;22245;52.832;13.816;2023-05-09T15:28:03;5.43;;;2.70;;
17763;SDS011;22245;52.832;13.816;2023-05-09T15:31:28;3.90;;;2.80;;
17763;SDS011;22245;52.832;13.816;2023-05-09T15:34:52;5.25;;;2.75;;
17763;SDS011;22245;52.832;13.816;2023-05-09T15:38:15;5.93;;;2.53;;
17763;SDS011;22245;52.832;13.816;2023-05-09T15:41:37;5.50;;;2.40;;
17763;SDS011;22245;52.832;13.816;2023-05-09T15:44:58;5.80;;;2.60;;
17763;SDS011;22245;52.832;13.816;2023-05-09T15:48:20;4.07;;;2.38;;
17763;SDS011;22245;52.832;13.816;2023-05-09T15:51:42;5.82;;;3.00;;
17763;SDS011;22245;52.832;13.816;2023-05-09T15:55:06;4.03;;;2.47;;
17763;SDS011;22245;52.832;13.816;2023-05-09T15:58:30;6.00;;;2.75;;
17763;SDS011;22245;52.832;13.816;2023-05-09T16:01:53;8.80;;;2.80;;
17763;SDS011;22245;52.832;13.816;2023-05-09T16:05:15;6.60;;;2.80;;
17763;SDS011;22245;52.832;13.816;2023-05-09T16:08:37;6.03;;;3.03;;
17763;SDS011;22245;52.832;13.816;2023-05-09T16:12:00;8.20;;;3.00;;
17763;SDS011;22245;52.832;13.816;2023-05-09T16:15:22;4.88;;;2.90;;
17763;SDS011;22245;52.832;13.816;2023-05-09T16:18:44;6.28;;;2.83;;
17763;SDS011;22245;52.832;13.816;2023-05-09T16:22:05;5.70;;;2.65;;
17763;SDS011;22245;52.832;13.816;2023-05-09T16:25:27;4.57;;;2.75;;
17763;SDS011;22245;52.832;13.816;2023-05-09T16:28:52;9.65;;;2.72;;
17763;SDS011;22245;52.832;13.816;2023-05-09T16:32:14;5.68;;;2.60;;
17763;SDS011;22245;52.832;13.816;2023-05-09T16:35:36;4.45;;;2.40;;
17763;SDS011;22245;52.832;13.816;2023-05-09T16:38:57;5.35;;;2.80;;
17763;SDS011;22245;52.832;13.816;2023-05-09T16:42:18;8.75;;;2.90;;
17763;SDS011;22245;52.832;13.816;2023-05-09T16:45:41;6.55;;;2.80;;
17763;SDS011;22245;52.832;13.816;2023-05-09T16:49:03;7.32;;;2.83;;
17763;SDS011;22245;52.832;13.816;2023-05-09T16:52:25;7.93;;;2.90;;
17763;SDS011;22245;52.832;13.816;2023-05-09T16:55:46;3.78;;;2.67;;
17763;SDS011;22245;52.832;13.816;2023-05-09T16:59:08;5.00;;;2.70;;
17763;SDS011;22245;52.832;13.816;2023-05-09T17:02:31;4.95;;;2.70;;
17763;SDS011;22245;52.832;13.816;2023-05-09T17:05:52;6.10;;;2.90;;
17763;SDS011;22245;52.832;13.816;2023-05-09T17:09:14;8.85;;;3.53;;
17763;SDS011;22245;52.832;13.816;2023-05-09T17:12:36;3.90;;;2.70;;
17763;SDS011;22245;52.832;13.816;2023-05-09T17:15:58;6.53;;;3.08;;
17763;SDS011;22245;52.832;13.816;2023-05-09T17:19:22;4.53;;;3.33;;
17763;SDS011;22245;52.832;13.816;2023-05-09T17:22:44;5.25;;;2.85;;
17763;SDS011;22245;52.832;13.816;2023-05-09T17:26:05;11.00;;;3.20;;
17763;SDS011;22245;52.832;13.816;2023-05-09T17:29:27;5.30;;;3.10;;
17763;SDS011;22245;52.832;13.816;2023-05-09T17:32:50;5.95;;;3.10;;
17763;SDS011;22245;52.832;13.816;2023-05-09T17:36:13;4.68;;;2.90;;
17763;SDS011;22245;52.832;13.816;2023-05-09T17:39:34;4.65;;;2.90;;
17763;SDS011;22245;52.832;13.816;2023-05-09T17:42:57;6.78;;;3.03;;
17763;SDS011;22245;52.832;13.816;2023-05-09T17:46:18;8.73;;;2.88;;
17763;SDS011;22245;52.832;13.816;2023-05-09T17:49:40;5.97;;;3.10;;
17763;SDS011;22245;52.832;13.816;2023-05-09T17:53:03;6.22;;;2.95;;
17763;SDS011;22245;52.832;13.816;2023-05-09T17:56:27;6.70;;;3.10;;
17763;SDS011;22245;52.832;13.816;2023-05-09T17:59:49;7.20;;;3.03;;
17763;SDS011;22245;52.832;13.816;2023-05-09T18:03:11;6.05;;;3.60;;
17763;SDS011;22245;52.832;13.816;2023-05-09T18:06:33;6.32;;;3.85;;
17763;SDS011;22245;52.832;13.816;2023-05-09T18:09:56;4.15;;;2.97;;
17763;SDS011;22245;52.832;13.816;2023-05-09T18:13:17;3.40;;;2.60;;
17763;SDS011;22245;52.832;13.816;2023-05-09T18:16:39;5.65;;;3.10;;
17763;SDS011;22245;52.832;13.816;2023-05-09T18:20:00;5.28;;;3.00;;
17763;SDS011;22245;52.832;13.816;2023-05-09T18:23:23;5.78;;;3.15;;
17763;SDS011;22245;52.832;13.816;2023-05-09T18:26:46;5.43;;;2.90;;
17763;SDS011;22245;52.832;13.816;2023-05-09T18:30:08;5.68;;;3.03;;
17763;SDS011;22245;52.832;13.816;2023-05-09T18:33:30;7.85;;;3.80;;
17763;SDS011;22245;52.832;13.816;2023-05-09T18:36:55;8.68;;;3.63;;
17763;SDS011;22245;52.832;13.816;2023-05-09T18:40:17;5.90;;;3.00;;
17763;SDS011;22245;52.832;13.816;2023-05-09T18:43:40;6.22;;;3.45;;
17763;SDS011;22245;52.832;13.816;2023-05-09T18:47:05;5.45;;;2.97;;
17763;SDS011;22245;52.832;13.816;2023-05-09T18:50:27;6.05;;;3.30;;
17763;SDS011;22245;52.832;13.816;2023-05-09T18:53:48;8.27;;;3.83;;
17763;SDS011;22245;52.832;13.816;2023-05-09T18:57:09;6.15;;;3.47;;
17763;SDS011;22245;52.832;13.816;2023-05-09T19:00:33;4.38;;;2.92;;
17763;SDS011;22245;52.832;13.816;2023-05-09T19:03:54;6.28;;;3.38;;
17763;SDS011;22245;52.832;13.816;2023-05-09T19:07:16;5.63;;;3.40;;
17763;SDS011;22245;52.832;13.816;2023-05-09T19:10:37;5.18;;;3.03;;
17763;SDS011;22245;52.832;13.816;2023-05-09T19:13:59;8.80;;;3.75;;
17763;SDS011;22245;52.832;13.816;2023-05-09T19:17:22;7.80;;;2.97;;
17763;SDS011;22245;52.832;13.816;2023-05-09T19:20:43;8.82;;;3.63;;
17763;SDS011;22245;52.832;13.816;2023-05-09T19:24:06;8.35;;;3.53;;
17763;SDS011;22245;52.832;13.816;2023-05-09T19:27:28;6.68;;;3.25;;
17763;SDS011;22245;52.832;13.816;2023-05-09T19:30:50;5.97;;;3.42;;
17763;SDS011;22245;52.832;13.816;2023-05-09T19:34:13;5.57;;;3.53;;
17763;SDS011;22245;52.832;13.816;2023-05-09T19:37:35;5.90;;;3.42;;
17763;SDS011;22245;52.832;13.816;2023-05-09T19:40:57;7.15;;;3.72;;
17763;SDS011;22245;52.832;13.816;2023-05-09T19:44:19;5.55;;;3.15;;
17763;SDS011;22245;52.832;13.816;2023-05-09T19:47:40;5.18;;;3.13;;
17763;SDS011;22245;52.832;13.816;2023-05-09T19:51:03;5.78;;;3.40;;
17763;SDS011;22245;52.832;13.816;2023-05-09T19:54:28;4.50;;;3.13;;
17763;SDS011;22245;52.832;13.816;2023-05-09T19:57:49;6.78;;;3.45;;
17763;SDS011;22245;52.832;13.816;2023-05-09T20:01:11;5.55;;;2.97;;
17763;SDS011;22245;52.832;13.816;2023-05-09T20:04:33;7.28;;;3.42;;
17763;SDS011;22245;52.832;13.816;2023-05-09T20:07:57;8.73;;;3.47;;